Time;durP1;ratioP1;P1;durP2;ratioP2;P2;SDS_P1;SDS_P2;PMS_P1;PMS_P2;Temp;Humidity;BMP_temperature;BMP_pressure;BME280_temperature;BME280_humidity;BME280_pressure;Samples;Min_cycle;Max_cycle;Signal;HPM_P1;HPM_P2
2021/04/05 00:01:04;;;;;;;5.47;3.97;;;2.20;99.90;;;;;;4753122;30;20431;-78
2021/04/05 00:03:35;;;;;;;6.93;4.45;;;2.20;99.90;;;;;;4771911;30;20043;-78
2021/04/05 00:06:06;;;;;;;7.38;4.70;;;2.20;99.90;;;;;;4774199;30;20069;-78
2021/04/05 00:08:38;;;;;;;7.10;4.65;;;2.30;99.90;;;;;;4771832;30;20104;-80
2021/04/05 00:11:04;;;;;;;6.03;3.78;;;2.40;99.90;;;;;;4771357;30;20126;-79
2021/04/05 00:13:36;;;;;;;7.90;4.35;;;2.50;99.90;;;;;;4770279;30;20542;-79
2021/04/05 00:16:08;;;;;;;6.90;4.20;;;2.50;99.90;;;;;;4770667;30;20057;-79
2021/04/05 00:18:34;;;;;;;7.85;4.40;;;2.50;99.90;;;;;;4770252;30;20059;-79
2021/04/05 00:21:09;;;;;;;8.73;4.20;;;2.60;99.90;;;;;;4787769;30;20075;-79
2021/04/05 00:23:36;;;;;;;8.70;4.15;;;2.60;99.90;;;;;;4772198;30;20044;-79
2021/04/05 00:26:07;;;;;;;8.82;4.70;;;2.60;99.90;;;;;;4772245;30;20059;-79
2021/04/05 00:28:38;;;;;;;7.43;4.65;;;2.60;99.90;;;;;;4772574;30;20103;-79
2021/04/05 00:31:11;;;;;;;6.43;4.10;;;2.60;99.90;;;;;;4771657;30;20146;-79
2021/04/05 00:33:37;;;;;;;5.47;3.90;;;2.70;99.90;;;;;;4757635;30;20063;-79
2021/04/05 00:36:04;;;;;;;4.75;3.42;;;2.70;99.90;;;;;;4757151;30;20062;-79
2021/04/05 00:38:30;;;;;;;6.80;4.82;;;2.80;99.90;;;;;;4771616;30;20052;-79
2021/04/05 00:41:04;;;;;;;6.22;3.75;;;2.80;99.90;;;;;;4771589;30;20062;-79
2021/04/05 00:43:31;;;;;;;9.30;5.45;;;2.80;99.90;;;;;;4757232;30;20062;-79
2021/04/05 00:46:04;;;;;;;10.15;6.32;;;2.80;99.90;;;;;;4772570;30;20130;-79
2021/04/05 00:48:36;;;;;;;9.38;6.28;;;2.70;99.90;;;;;;4787439;30;20051;-78
2021/04/05 00:51:17;;;;;;;8.98;6.03;;;2.70;99.90;;;;;;4770364;30;20047;-78
2021/04/05 00:53:49;;;;;;;9.57;5.95;;;2.60;99.90;;;;;;4770047;30;20044;-78
2021/04/05 00:56:25;;;;;;;9.93;6.22;;;2.50;99.90;;;;;;4768956;30;20154;-78
2021/04/05 00:58:57;;;;;;;11.07;6.47;;;2.50;99.90;;;;;;4769219;30;20461;-78
2021/04/05 01:01:28;;;;;;;9.10;5.57;;;2.50;99.90;;;;;;4755536;30;20079;-78
2021/04/05 01:04:00;;;;;;;12.57;5.93;;;2.50;99.90;;;;;;4755408;30;20051;-78
2021/04/05 01:06:34;;;;;;;8.90;6.20;;;2.40;99.90;;;;;;4755834;30;20147;-77
2021/04/05 01:09:07;;;;;;;7.63;5.60;;;2.30;99.90;;;;;;4769091;30;20074;-78
2021/04/05 01:11:38;;;;;;;10.25;6.53;;;2.30;99.90;;;;;;4770191;30;20124;-78
2021/04/05 01:14:09;;;;;;;7.43;5.32;;;2.30;99.90;;;;;;4769468;30;20059;-78
2021/04/05 01:16:41;;;;;;;7.88;5.47;;;2.30;99.90;;;;;;4769820;30;20052;-78
2021/04/05 01:19:13;;;;;;;6.75;4.63;;;2.20;99.90;;;;;;4755273;30;20058;-78
2021/04/05 01:21:49;;;;;;;6.00;3.65;;;2.30;99.90;;;;;;4769687;30;20047;-77
2021/04/05 01:24:21;;;;;;;7.90;4.97;;;2.40;99.90;;;;;;4769578;30;20126;-77
2021/04/05 01:26:52;;;;;;;8.65;5.25;;;2.50;99.90;;;;;;4769475;30;20075;-78
2021/04/05 01:29:24;;;;;;;7.63;5.25;;;2.60;99.90;;;;;;4784752;30;20074;-78
2021/04/05 01:31:55;;;;;;;6.93;4.65;;;2.60;99.90;;;;;;4754958;30;20134;-78
2021/04/05 01:34:26;;;;;;;9.70;5.68;;;2.60;99.90;;;;;;4754904;30;20051;-77
2021/04/05 01:37:01;;;;;;;10.93;4.70;;;2.60;99.90;;;;;;4769793;30;20438;-78
2021/04/05 01:39:36;;;;;;;10.20;5.10;;;2.50;99.90;;;;;;4768476;30;20408;-78
2021/04/05 01:42:08;;;;;;;7.25;5.30;;;2.50;99.90;;;;;;4769725;30;20082;-77
2021/04/05 01:44:39;;;;;;;10.38;6.15;;;2.50;99.90;;;;;;4765347;30;20054;-78
2021/04/05 01:47:11;;;;;;;10.88;6.55;;;2.40;99.90;;;;;;4755097;30;20078;-78
2021/04/05 01:49:42;;;;;;;11.13;5.30;;;2.40;99.90;;;;;;4755007;29;20108;-78
2021/04/05 01:52:14;;;;;;;9.38;5.55;;;2.40;99.90;;;;;;4755033;30;20055;-78
2021/04/05 01:54:45;;;;;;;8.20;5.47;;;2.40;99.90;;;;;;4769181;30;20055;-78
2021/04/05 01:57:17;;;;;;;7.85;5.45;;;2.30;99.90;;;;;;4755343;30;20120;-78
2021/04/05 01:59:48;;;;;;;9.98;6.25;;;2.30;99.90;;;;;;4754590;30;20051;-78
2021/04/05 02:02:20;;;;;;;9.23;5.90;;;2.30;99.90;;;;;;4755066;30;20100;-78
2021/04/05 02:04:51;;;;;;;10.52;5.50;;;2.20;99.90;;;;;;4755100;30;20055;-78
2021/04/05 02:07:23;;;;;;;8.18;5.43;;;2.20;99.90;;;;;;4769203;30;20154;-78
2021/04/05 02:09:49;;;;;;;9.23;5.25;;;2.10;99.90;;;;;;4753861;30;20056;-77
2021/04/05 02:12:21;;;;;;;10.02;6.85;;;2.10;99.90;;;;;;4754799;30;20055;-78
2021/04/05 02:14:52;;;;;;;8.73;5.35;;;2.00;99.90;;;;;;4770234;30;20078;-78
2021/04/05 02:17:24;;;;;;;9.57;5.75;;;2.00;99.90;;;;;;4754769;30;20067;-78
2021/04/05 02:19:55;;;;;;;10.77;6.43;;;2.00;99.90;;;;;;4769458;30;20122;-78
2021/04/05 02:22:27;;;;;;;9.75;5.82;;;1.90;99.90;;;;;;4769162;30;20134;-78
2021/04/05 02:24:58;;;;;;;9.32;6.03;;;1.90;99.90;;;;;;4768980;30;20050;-78
2021/04/05 02:27:31;;;;;;;9.98;5.88;;;1.90;99.90;;;;;;4754826;30;20146;-78
2021/04/05 02:30:05;;;;;;;9.20;5.85;;;1.90;99.90;;;;;;4768876;30;20055;-78
2021/04/05 02:32:39;;;;;;;10.38;5.35;;;1.90;99.90;;;;;;4768864;30;20051;-78
2021/04/05 02:35:10;;;;;;;7.72;5.03;;;1.90;99.90;;;;;;4769009;30;20055;-77
2021/04/05 02:37:42;;;;;;;6.38;3.90;;;1.90;99.90;;;;;;4769393;30;20063;-78
2021/04/05 02:40:14;;;;;;;8.07;5.03;;;2.00;99.90;;;;;;4768940;30;20051;-77
2021/04/05 02:42:47;;;;;;;6.63;4.00;;;2.10;99.90;;;;;;4754685;30;20473;-78
2021/04/05 02:45:20;;;;;;;9.95;4.32;;;2.20;99.90;;;;;;4769015;30;20055;-78
2021/04/05 02:47:54;;;;;;;9.68;4.50;;;2.40;99.90;;;;;;4768533;30;20071;-78
2021/04/05 02:50:29;;;;;;;7.97;5.00;;;2.40;99.90;;;;;;4754831;30;20326;-78
2021/04/05 02:53:06;;;;;;;7.30;5.07;;;2.50;99.90;;;;;;4754668;30;20047;-78
2021/04/05 02:55:38;;;;;;;7.57;5.00;;;2.40;99.90;;;;;;4769112;30;20539;-78
2021/04/05 02:58:09;;;;;;;6.95;4.63;;;2.40;99.90;;;;;;4768232;30;20124;-78
2021/04/05 03:00:40;;;;;;;6.20;5.15;;;2.30;99.90;;;;;;4754617;30;20047;-78
2021/04/05 03:03:12;;;;;;;6.55;5.10;;;2.30;99.90;;;;;;4756531;30;20743;-78
2021/04/05 03:05:44;;;;;;;7.93;4.80;;;2.20;99.90;;;;;;4772247;30;20138;-78
2021/04/05 03:08:17;;;;;;;7.25;4.97;;;2.20;99.90;;;;;;4771908;30;20469;-78
2021/04/05 03:10:50;;;;;;;7.35;5.00;;;2.20;99.90;;;;;;4772942;30;20134;-78
2021/04/05 03:13:26;;;;;;;7.10;5.00;;;2.10;99.90;;;;;;4757855;30;20081;-78
2021/04/05 03:15:57;;;;;;;10.07;5.53;;;2.10;99.90;;;;;;4772096;30;20047;-78
2021/04/05 03:18:30;;;;;;;8.63;5.10;;;2.10;99.90;;;;;;4771504;30;20515;-77
2021/04/05 03:21:09;;;;;;;5.80;3.90;;;2.10;99.90;;;;;;4771997;30;20051;-78
2021/04/05 03:23:41;;;;;;;5.03;3.90;;;2.10;99.90;;;;;;4757646;30;20083;-77
2021/04/05 03:26:13;;;;;;;6.90;3.78;;;2.30;99.90;;;;;;4772381;30;20601;-78
2021/04/05 03:28:44;;;;;;;4.72;3.38;;;2.50;99.90;;;;;;4771267;30;20588;-78
2021/04/05 03:31:18;;;;;;;5.07;3.20;;;2.60;99.90;;;;;;4771601;30;20134;-78
2021/04/05 03:34:06;;;;;;;8.20;3.65;;;2.80;99.90;;;;;;4787577;30;20105;-78
2021/04/05 03:36:44;;;;;;;5.82;3.45;;;2.90;99.90;;;;;;4757276;30;20516;-78
2021/04/05 03:39:17;;;;;;;5.47;3.58;;;2.90;99.90;;;;;;4771091;30;20112;-78
2021/04/05 03:42:20;;;;;;;5.05;3.65;;;2.90;99.90;;;;;;4771455;30;20579;-77
2021/04/05 03:45:04;;;;;;;11.38;6.28;;;2.90;99.90;;;;;;4771621;30;20504;-78
2021/04/05 03:48:08;;;;;;;9.48;6.28;;;2.80;99.90;;;;;;4757063;30;20090;-78
2021/04/05 03:50:46;;;;;;;11.43;6.75;;;2.80;99.90;;;;;;4757404;30;20051;-78
2021/04/05 03:53:40;;;;;;;16.27;11.00;;;2.70;99.90;;;;;;4771960;30;20074;-78
2021/04/05 03:56:17;;;;;;;12.35;7.57;;;2.60;99.90;;;;;;4771250;30;20056;-78
2021/04/05 03:58:52;;;;;;;9.20;5.10;;;2.60;99.90;;;;;;4770553;30;20082;-78
2021/04/05 04:01:29;;;;;;;6.25;3.60;;;2.50;99.90;;;;;;4771234;30;20086;-78
2021/04/05 04:05:07;;;;;;;3.38;2.35;;;2.50;99.90;;;;;;4771019;30;20055;-78
2021/04/05 04:09:39;;;;;;;7.38;3.33;;;3.00;99.90;;;;;;4770513;30;20085;-78
2021/04/05 04:12:16;;;;;;;7.17;3.03;;;3.20;99.90;;;;;;4770769;30;20124;-78
2021/04/05 04:14:48;;;;;;;4.40;2.85;;;3.30;99.90;;;;;;4770921;30;20391;-78
2021/04/05 04:17:20;;;;;;;4.38;3.20;;;3.50;99.90;;;;;;4770702;30;20401;-78
2021/04/05 04:19:53;;;;;;;5.15;3.38;;;3.60;99.90;;;;;;4770294;30;20150;-77
2021/04/05 04:22:25;;;;;;;5.07;2.83;;;3.60;99.90;;;;;;4770581;30;20124;-78
2021/04/05 04:24:58;;;;;;;6.43;3.35;;;3.60;99.90;;;;;;4770850;30;20531;-78
2021/04/05 04:27:29;;;;;;;4.75;2.58;;;3.60;99.90;;;;;;4770701;30;20479;-78
2021/04/05 04:30:01;;;;;;;5.28;3.33;;;3.60;99.90;;;;;;4771254;30;20120;-78
2021/04/05 04:32:32;;;;;;;5.80;2.75;;;3.60;99.90;;;;;;4770418;30;20100;-78
2021/04/05 04:35:09;;;;;;;3.50;2.78;;;3.50;99.90;;;;;;4756366;30;20109;-78
2021/04/05 04:37:40;;;;;;;4.57;2.67;;;3.50;99.90;;;;;;4771190;30;20043;-78
2021/04/05 04:40:12;;;;;;;4.70;2.95;;;3.50;99.90;;;;;;4756416;30;20463;-78
2021/04/05 04:42:43;;;;;;;5.43;3.13;;;3.50;99.90;;;;;;4770297;30;20142;-78
2021/04/05 04:45:16;;;;;;;4.97;3.00;;;3.50;99.90;;;;;;4771084;30;20082;-77
2021/04/05 04:47:43;;;;;;;5.00;3.00;;;3.60;99.90;;;;;;4755251;30;20108;-78
2021/04/05 04:50:15;;;;;;;6.18;2.80;;;3.60;99.90;;;;;;4756444;30;20146;-79
2021/04/05 04:52:47;;;;;;;5.53;3.63;;;3.70;99.90;;;;;;4770521;30;20486;-78
2021/04/05 04:55:21;;;;;;;7.07;3.35;;;3.80;99.90;;;;;;4755888;30;20329;-78
2021/04/05 04:57:57;;;;;;;7.10;4.40;;;3.90;99.90;;;;;;4769578;30;20587;-78
2021/04/05 05:00:30;;;;;;;5.57;3.38;;;4.00;99.90;;;;;;4770128;30;20133;-78
2021/04/05 05:03:01;;;;;;;9.35;4.40;;;4.00;99.90;;;;;;4755905;30;20534;-78
2021/04/05 05:05:34;;;;;;;4.70;2.92;;;4.10;99.90;;;;;;4755862;30;20047;-78
2021/04/05 05:08:05;;;;;;;3.95;2.85;;;4.20;99.90;;;;;;4755472;30;20610;-78
2021/04/05 05:10:37;;;;;;;4.65;3.13;;;4.20;99.90;;;;;;4769886;30;20055;-78
2021/04/05 05:13:08;;;;;;;4.68;2.65;;;4.30;99.90;;;;;;4755536;30;20058;-78
2021/04/05 05:15:43;;;;;;;5.75;2.97;;;4.30;99.90;;;;;;4772171;30;20605;-80
2021/04/05 05:18:15;;;;;;;6.25;3.80;;;4.20;99.90;;;;;;4758153;30;20495;-80
2021/04/05 05:20:46;;;;;;;6.70;3.85;;;4.20;99.90;;;;;;4758384;30;20047;-80
2021/04/05 05:23:18;;;;;;;6.00;2.97;;;4.10;99.90;;;;;;4772463;30;20490;-80
2021/04/05 05:25:50;;;;;;;5.65;3.17;;;4.20;99.90;;;;;;4772789;30;20078;-80
2021/04/05 05:28:22;;;;;;;6.35;3.38;;;4.20;99.90;;;;;;4773318;30;20047;-79
2021/04/05 05:30:53;;;;;;;7.82;4.82;;;4.30;99.90;;;;;;4758249;30;20142;-80
2021/04/05 05:33:25;;;;;;;7.45;3.35;;;4.30;99.90;;;;;;4772352;30;20100;-80
2021/04/05 05:35:52;;;;;;;7.93;3.35;;;4.30;99.90;;;;;;4757606;30;20094;-80
2021/04/05 05:38:24;;;;;;;5.55;2.90;;;4.40;99.90;;;;;;4772325;30;20039;-80
2021/04/05 05:41:05;;;;;;;6.53;4.00;;;4.40;99.90;;;;;;4773020;30;20047;-80
2021/04/05 05:43:47;;;;;;;6.00;3.78;;;4.50;99.90;;;;;;4758161;30;20519;-80
2021/04/05 05:46:37;;;;;;;5.90;2.88;;;4.60;99.90;;;;;;4772387;30;20059;-79
2021/04/05 05:49:27;;;;;;;6.07;3.20;;;4.60;99.90;;;;;;4758078;30;20503;-80
2021/04/05 05:52:01;;;;;;;5.90;3.17;;;4.70;99.90;;;;;;4772130;30;20058;-80
2021/04/05 05:55:10;;;;;;;5.88;3.95;;;4.80;99.90;;;;;;4772171;30;20146;-80
2021/04/05 05:58:14;;;;;;;3.55;2.80;;;4.90;99.90;;;;;;4758007;30;20074;-80
2021/04/05 06:00:53;;;;;;;6.70;3.75;;;5.00;99.90;;;;;;4771782;30;20059;-80
2021/04/05 06:03:40;;;;;;;6.40;3.42;;;5.10;99.90;;;;;;4772714;30;20086;-80
2021/04/05 06:06:18;;;;;;;4.57;3.08;;;5.20;99.90;;;;;;4757650;30;20051;-80
2021/04/05 06:09:08;;;;;;;4.68;3.22;;;5.30;99.90;;;;;;4771894;30;20055;-80
2021/04/05 06:11:55;;;;;;;5.75;3.40;;;5.40;99.90;;;;;;4771726;30;20051;-80
2021/04/05 06:14:58;;;;;;;9.00;3.45;;;5.50;99.90;;;;;;4771906;30;20057;-80
2021/04/05 06:17:59;;;;;;;5.53;3.17;;;5.60;99.90;;;;;;4768528;30;20051;-80
2021/04/05 06:23:44;;;;;;;11.00;3.88;;;5.70;99.90;;;;;;4769809;30;20052;-80
2021/04/05 06:26:52;;;;;;;5.07;3.40;;;5.80;99.90;;;;;;4771412;30;20122;-79
2021/04/05 06:29:22;;;;;;;8.60;3.63;;;5.90;99.90;;;;;;4756988;30;20047;-80
2021/04/05 06:32:16;;;;;;;4.45;2.92;;;6.00;99.90;;;;;;4776831;29;20112;-80
2021/04/05 06:35:02;;;;;;;8.23;2.75;;;6.10;99.90;;;;;;4754965;30;20409;-79
2021/04/05 06:37:41;;;;;;;7.80;3.35;;;6.20;99.90;;;;;;4786853;29;20123;-79
2021/04/05 06:40:16;;;;;;;4.72;3.10;;;6.30;99.90;;;;;;4773037;30;20047;-79
2021/04/05 06:43:25;;;;;;;6.30;3.92;;;6.30;99.80;;;;;;4802793;29;20100;-79
2021/04/05 06:46:16;;;;;;;5.22;3.25;;;6.40;99.90;;;;;;4773619;30;20079;-79
2021/04/05 06:49:02;;;;;;;6.90;3.65;;;6.50;99.80;;;;;;4776071;30;20154;-79
2021/04/05 06:51:59;;;;;;;6.78;4.10;;;6.50;99.30;;;;;;4773484;30;20579;-79
2021/04/05 06:54:51;;;;;;;6.35;2.90;;;6.50;99.50;;;;;;4787722;30;20524;-78
2021/04/05 06:57:32;;;;;;;9.20;3.53;;;6.60;99.50;;;;;;4774226;30;20138;-80
2021/04/05 07:00:15;;;;;;;7.22;4.03;;;6.60;99.50;;;;;;4773682;30;20575;-79
2021/04/05 07:02:56;;;;;;;7.30;3.28;;;6.70;99.40;;;;;;4774151;30;20098;-79
2021/04/05 07:05:34;;;;;;;5.78;3.50;;;6.80;98.70;;;;;;4773950;30;20146;-79
2021/04/05 07:08:43;;;;;;;5.65;3.25;;;7.00;98.70;;;;;;4788208;30;20128;-79
2021/04/05 07:12:02;;;;;;;9.13;3.40;;;7.20;97.30;;;;;;4737636;30;20150;-79
2021/04/05 07:14:34;;;;;;;7.82;3.28;;;7.40;97.90;;;;;;4785308;29;20495;-79
2021/04/05 07:17:23;;;;;;;7.60;3.75;;;7.50;96.50;;;;;;4773979;30;20113;-78
2021/04/05 07:20:16;;;;;;;5.63;3.10;;;7.70;96.10;;;;;;4787898;30;20092;-79
2021/04/05 07:22:59;;;;;;;8.00;3.42;;;7.80;95.40;;;;;;4773806;30;20052;-78
2021/04/05 07:25:49;;;;;;;5.80;3.40;;;8.00;95.10;;;;;;4773723;30;20086;-78
2021/04/05 07:28:51;;;;;;;5.00;3.63;;;8.10;94.60;;;;;;4788414;29;20120;-80
2021/04/05 07:31:38;;;;;;;7.13;3.40;;;8.30;93.60;;;;;;4775343;30;20093;-77
2021/04/05 07:34:25;;;;;;;7.97;3.80;;;8.30;93.10;;;;;;4789739;30;20051;-77
2021/04/05 07:37:11;;;;;;;5.53;3.15;;;8.30;91.70;;;;;;4776040;30;20142;-77
2021/04/05 07:39:49;;;;;;;6.45;3.40;;;8.40;92.50;;;;;;4776538;30;20086;-77
2021/04/05 07:42:46;;;;;;;9.68;3.45;;;8.40;91.30;;;;;;4777890;30;20138;-78
2021/04/05 07:45:49;;;;;;;5.07;2.95;;;8.40;91.20;;;;;;4789083;29;20043;-76
2021/04/05 07:48:30;;;;;;;8.18;3.85;;;8.50;91.20;;;;;;4775570;30;20075;-77
2021/04/05 07:51:16;;;;;;;5.50;3.42;;;8.60;90.80;;;;;;4785505;30;20047;-78
2021/04/05 07:54:03;;;;;;;6.78;3.30;;;8.80;90.80;;;;;;4770825;30;20151;-78
2021/04/05 07:56:32;;;;;;;6.90;3.33;;;8.90;90.60;;;;;;4770974;30;20052;-77
2021/04/05 07:59:03;;;;;;;6.53;3.25;;;9.00;89.10;;;;;;4770310;30;20095;-78
2021/04/05 08:01:44;;;;;;;6.78;3.20;;;9.20;90.10;;;;;;4770623;30;20075;-78
2021/04/05 08:04:31;;;;;;;4.97;3.28;;;9.40;89.80;;;;;;4771173;30;20496;-78
2021/04/05 08:07:31;;;;;;;8.23;2.92;;;9.50;88.30;;;;;;4756191;30;20064;-78
2021/04/05 08:10:41;;;;;;;6.10;3.90;;;9.50;89.00;;;;;;4741592;30;20206;-78
2021/04/05 08:13:35;;;;;;;5.43;3.08;;;9.60;88.30;;;;;;4771142;30;20055;-78
2021/04/05 08:16:24;;;;;;;6.53;3.15;;;9.70;86.60;;;;;;4771263;30;20098;-78
2021/04/05 08:19:05;;;;;;;7.00;3.30;;;9.90;84.80;;;;;;4770881;30;20048;-78
2021/04/05 08:21:44;;;;;;;6.70;3.00;;;9.90;84.10;;;;;;4756245;30;20048;-78
2021/04/05 08:24:26;;;;;;;5.15;2.78;;;10.10;85.30;;;;;;4770200;30;20143;-78
2021/04/05 08:27:13;;;;;;;8.23;3.40;;;10.30;84.20;;;;;;4770635;30;20412;-78
2021/04/05 08:29:55;;;;;;;5.40;3.03;;;10.30;84.20;;;;;;4770019;30;20052;-78
2021/04/05 08:32:54;;;;;;;3.97;2.65;;;10.30;80.20;;;;;;4770721;30;20044;-78
2021/04/05 08:35:40;;;;;;;5.47;3.13;;;10.20;79.50;;;;;;4770223;30;20047;-78
2021/04/05 08:38:30;;;;;;;5.68;3.15;;;10.20;81.40;;;;;;4770730;30;20051;-78
2021/04/05 08:41:11;;;;;;;8.40;2.97;;;10.30;80.50;;;;;;4770003;30;20147;-78
2021/04/05 08:43:51;;;;;;;7.30;3.00;;;10.40;81.80;;;;;;4769951;30;20130;-78
2021/04/05 08:46:25;;;;;;;5.80;2.65;;;10.50;78.50;;;;;;4784487;30;20036;-77
2021/04/05 08:49:03;;;;;;;3.70;2.88;;;10.50;76.20;;;;;;4767527;30;20138;-78
2021/04/05 08:51:36;;;;;;;4.63;2.85;;;10.40;75.80;;;;;;4784386;30;20052;-78
2021/04/05 08:54:06;;;;;;;4.30;2.92;;;10.40;73.60;;;;;;4799155;29;20043;-78
2021/04/05 08:56:43;;;;;;;3.72;2.58;;;10.40;72.60;;;;;;4768130;30;20056;-78
2021/04/05 08:59:55;;;;;;;6.32;3.03;;;10.30;72.30;;;;;;4788064;29;20185;-77
2021/04/05 09:02:24;;;;;;;5.72;3.03;;;10.30;73.10;;;;;;4786642;30;20401;-78
2021/04/05 09:04:57;;;;;;;5.80;2.63;;;10.40;73.50;;;;;;4796475;29;20142;-78
2021/04/05 09:07:34;;;;;;;4.95;2.95;;;10.40;71.30;;;;;;4806004;29;20070;-78
2021/04/05 09:10:08;;;;;;;5.53;3.20;;;10.40;73.80;;;;;;4806450;29;20047;-79
2021/04/05 09:12:36;;;;;;;8.02;3.17;;;10.50;72.60;;;;;;5097718;24;20050;-78
2021/04/05 09:15:27;;;;;;;6.47;3.35;;;10.30;71.80;;;;;;4794473;29;20050;-78
2021/04/05 09:18:46;;;;;;;4.32;2.65;;;10.40;74.40;;;;;;4778990;29;20047;-79
2021/04/05 09:21:36;;;;;;;8.02;4.05;;;10.50;74.30;;;;;;4776384;29;20051;-80
2021/04/05 09:24:37;;;;;;;6.80;3.30;;;10.50;71.10;;;;;;4790541;29;20530;-78
2021/04/05 09:27:34;;;;;;;9.07;3.78;;;10.40;72.40;;;;;;4790398;29;20130;-78
2021/04/05 09:33:36;;;;;;;6.93;3.75;;;10.60;72.70;;;;;;4947486;24;20117;-79
2021/04/05 09:36:32;;;;;;;10.43;3.83;;;10.60;71.10;;;;;;4761814;30;20085;-78
2021/04/05 09:39:10;;;;;;;4.55;3.50;;;10.50;72.10;;;;;;4757681;30;20043;-79
2021/04/05 09:42:03;;;;;;;6.82;3.28;;;10.50;72.30;;;;;;4772356;30;20058;-78
2021/04/05 09:44:56;;;;;;;8.73;3.50;;;10.60;72.00;;;;;;4754123;30;20048;-79
2021/04/05 09:47:48;;;;;;;6.03;3.17;;;10.60;74.30;;;;;;4755545;29;20078;-78
2021/04/05 09:53:18;;;;;;;8.13;3.70;;;10.70;71.80;;;;;;4817489;24;20043;-78
2021/04/05 09:56:14;;;;;;;7.03;3.10;;;10.80;72.50;;;;;;4757903;30;20055;-78
2021/04/05 09:59:08;;;;;;;5.05;3.20;;;10.80;73.20;;;;;;4759847;30;20499;-78
2021/04/05 10:01:41;;;;;;;6.18;3.38;;;11.00;74.40;;;;;;4772127;30;20039;-78
2021/04/05 10:04:19;;;;;;;5.75;3.15;;;11.10;71.50;;;;;;4760165;29;20074;-79
2021/04/05 10:06:49;;;;;;;;;;;11.20;72.80;;;;;;4775205;29;20047;-78
2021/04/05 10:09:18;;;;;;;9.15;4.00;;;11.20;73.10;;;;;;4759009;30;20027;-78
2021/04/05 10:11:53;;;;;;;7.72;4.28;;;11.20;71.20;;;;;;4771266;30;20079;-77
2021/04/05 10:14:32;;;;;;;5.05;3.67;;;11.30;72.30;;;;;;4758490;30;20047;-78
2021/04/05 10:17:02;;;;;;;6.40;3.75;;;11.30;73.30;;;;;;4756893;30;20051;-78
2021/04/05 10:19:40;;;;;;;5.43;3.30;;;11.40;70.30;;;;;;4757720;30;20047;-78
2021/04/05 10:22:29;;;;;;;;;;;;;;;;;;;;;
2021/04/05 10:25:04;;;;;;;5.30;2.97;;;11.50;69.40;;;;;;4771745;30;20056;-78
2021/04/05 10:27:32;;;;;;;5.18;2.97;;;11.80;71.00;;;;;;4771988;30;20074;-78
2021/04/05 10:30:01;;;;;;;7.97;3.90;;;11.90;68.30;;;;;;4771691;29;20050;-78
2021/04/05 10:32:28;;;;;;;8.68;2.97;;;12.00;68.50;;;;;;4790862;29;20051;-80
2021/04/05 10:34:58;;;;;;;7.38;3.70;;;12.10;70.00;;;;;;4790727;29;20096;-77
2021/04/05 10:37:51;;;;;;;7.75;3.38;;;12.20;67.60;;;;;;4766215;29;20113;-78
2021/04/05 10:40:23;;;;;;;5.35;3.60;;;12.40;66.50;;;;;;4789953;29;20463;-78
2021/04/05 10:42:58;;;;;;;9.70;3.88;;;12.50;65.70;;;;;;4791216;29;20070;-78
2021/04/05 10:45:29;;;;;;;5.15;3.42;;;12.60;67.00;;;;;;4792491;29;20065;-80
2021/04/05 10:48:18;;;;;;;7.30;3.35;;;12.70;64.50;;;;;;4793048;29;20055;-81
2021/04/05 10:51:02;;;;;;;6.18;2.80;;;12.90;65.50;;;;;;4793958;29;20046;-78
2021/04/05 10:53:40;;;;;;;3.70;2.30;;;13.10;60.70;;;;;;4776674;29;20133;-80
2021/04/05 10:56:09;;;;;;;8.13;2.40;;;13.10;57.30;;;;;;4790254;29;20047;-80
2021/04/05 10:58:49;;;;;;;6.70;2.00;;;13.10;55.70;;;;;;4790184;29;20062;-80
2021/04/05 11:01:17;;;;;;;3.83;2.42;;;13.20;56.10;;;;;;4774971;29;20062;-80
2021/04/05 11:03:50;;;;;;;8.25;2.63;;;13.20;54.70;;;;;;4766028;30;20470;-80
2021/04/05 11:06:28;;;;;;;10.75;3.03;;;13.30;55.40;;;;;;4773990;30;20047;-80
2021/04/05 11:09:05;;;;;;;4.80;2.17;;;13.30;53.00;;;;;;4758474;30;20142;-80
2021/04/05 11:11:37;;;;;;;7.18;2.50;;;13.10;52.70;;;;;;4784412;24;20137;-80
2021/04/05 11:14:14;;;;;;;5.82;2.47;;;13.10;54.70;;;;;;4790970;29;20122;-78
2021/04/05 11:16:55;;;;;;;5.13;2.40;;;13.20;55.00;;;;;;4774974;29;20082;-78
2021/04/05 11:19:33;;;;;;;6.05;3.33;;;13.40;55.90;;;;;;4775024;29;20181;-77
2021/04/05 11:22:00;;;;;;;13.73;5.35;;;13.40;53.20;;;;;;4792358;29;20076;-78
2021/04/05 11:24:38;;;;;;;8.75;5.13;;;13.30;53.60;;;;;;4779016;29;20134;-77
2021/04/05 11:27:12;;;;;;;8.40;6.22;;;13.40;53.40;;;;;;4772071;29;20058;-78
2021/04/05 11:29:48;;;;;;;8.52;2.65;;;13.50;54.20;;;;;;4775607;29;20515;-79
2021/04/05 11:32:17;;;;;;;4.88;2.08;;;13.50;54.30;;;;;;4758633;30;20146;-78
2021/04/05 11:34:53;;;;;;;;;;;13.60;55.10;;;;;;4774150;30;20555;-78
2021/04/05 11:37:34;;;;;;;5.50;2.50;;;13.60;53.80;;;;;;4759731;30;20514;-78
2021/04/05 11:40:12;;;;;;;5.40;2.22;;;13.70;54.90;;;;;;4761567;29;20051;-78
2021/04/05 11:42:47;;;;;;;5.18;2.10;;;13.60;49.90;;;;;;4776821;29;20108;-78
2021/04/05 11:45:33;;;;;;;3.95;2.10;;;13.60;51.00;;;;;;4783275;30;20051;-78
2021/04/05 11:48:13;;;;;;;5.93;2.30;;;13.70;53.30;;;;;;4773763;30;20137;-78
2021/04/05 11:50:44;;;;;;;6.05;2.70;;;14.10;53.20;;;;;;4759649;29;20055;-78
2021/04/05 11:53:47;;;;;;;5.72;2.10;;;13.80;50.10;;;;;;4773623;30;20060;-77
2021/04/05 11:56:23;;;;;;;6.47;2.35;;;13.80;51.20;;;;;;4759673;30;20055;-77
2021/04/05 11:59:05;;;;;;;5.00;2.22;;;13.70;50.10;;;;;;4773494;30;20078;-77
2021/04/05 12:01:53;;;;;;;5.13;2.15;;;13.60;49.60;;;;;;4759327;30;20039;-78
2021/04/05 12:04:47;;;;;;;5.93;2.13;;;13.50;51.40;;;;;;4759497;30;20047;-78
2021/04/05 12:07:23;;;;;;;;;;;13.70;50.40;;;;;;4765590;30;20055;-78
2021/04/05 12:10:01;;;;;;;5.15;2.15;;;13.60;50.30;;;;;;4758729;30;20298;-78
2021/04/05 12:12:46;;;;;;;4.33;3.03;;;13.60;50.30;;;;;;4774440;30;20051;-78
2021/04/05 12:15:20;;;;;;;5.85;2.55;;;13.60;49.30;;;;;;4759402;30;20123;-78
2021/04/05 12:17:52;;;;;;;3.88;2.03;;;13.70;49.80;;;;;;4759295;30;20594;-78
2021/04/05 12:20:26;;;;;;;4.43;1.83;;;13.60;51.00;;;;;;4759372;30;20070;-80
2021/04/05 12:23:01;;;;;;;3.80;2.00;;;13.50;49.90;;;;;;4758965;30;20051;-79
2021/04/05 12:25:39;;;;;;;9.00;2.67;;;13.50;51.00;;;;;;4783931;29;20129;-80
2021/04/05 12:28:09;;;;;;;4.93;2.17;;;13.20;50.00;;;;;;4774790;29;20055;-81
2021/04/05 12:30:41;;;;;;;3.80;2.20;;;13.00;51.40;;;;;;4772989;29;20051;-80
2021/04/05 12:33:17;;;;;;;8.07;2.63;;;12.90;52.60;;;;;;4790618;29;20137;-80
2021/04/05 12:35:53;;;;;;;3.17;2.40;;;12.80;51.60;;;;;;4792771;29;20495;-79
2021/04/05 12:38:36;;;;;;;4.88;2.67;;;12.60;51.70;;;;;;4773800;29;20491;-80
2021/04/05 12:44:31;;;;;;;5.25;2.58;;;12.50;53.00;;;;;;4816373;24;20526;-78
2021/04/05 12:47:06;;;;;;;;;;;12.40;52.10;;;;;;4772356;30;20063;-77
2021/04/05 12:49:44;;;;;;;5.70;2.40;;;12.20;52.40;;;;;;4774247;30;19926;-78
2021/04/05 12:52:19;;;;;;;7.97;2.30;;;12.10;52.70;;;;;;4774388;30;20085;-78
2021/04/05 12:54:52;;;;;;;6.15;2.42;;;12.00;53.00;;;;;;4760072;30;20059;-77
2021/04/05 12:57:28;;;;;;;6.75;2.90;;;11.90;53.00;;;;;;4759577;30;20058;-77
2021/04/05 12:59:55;;;;;;;7.20;2.85;;;12.00;55.00;;;;;;4744108;30;20139;-78
2021/04/05 13:02:32;;;;;;;7.13;2.90;;;12.00;54.00;;;;;;4755243;30;20051;-78
2021/04/05 13:05:02;;;;;;;6.88;3.05;;;12.00;53.60;;;;;;4755117;30;20052;-77
2021/04/05 13:07:52;;;;;;;12.82;2.88;;;11.90;54.20;;;;;;4755300;30;20064;-77
2021/04/05 13:10:34;;;;;;;5.55;2.47;;;11.80;53.10;;;;;;4770381;30;20067;-77
2021/04/05 13:13:12;;;;;;;24.60;13.13;;;11.80;53.90;;;;;;4770202;30;20051;-77
2021/04/05 13:15:59;;;;;;;8.45;2.47;;;11.90;55.50;;;;;;4755785;30;20207;-77
2021/04/05 13:18:34;;;;;;;9.02;3.75;;;11.80;55.60;;;;;;4755038;30;20059;-77
2021/04/05 13:21:05;;;;;;;10.32;4.38;;;11.80;55.70;;;;;;4755147;30;20048;-78
2021/04/05 13:23:39;;;;;;;18.98;11.13;;;11.60;55.60;;;;;;4755320;30;20489;-77
2021/04/05 13:26:15;;;;;;;27.88;16.45;;;11.60;56.20;;;;;;4769532;30;20420;-79
2021/04/05 13:28:42;;;;;;;12.70;5.88;;;11.60;57.10;;;;;;4770281;30;20079;-77
2021/04/05 13:31:15;;;;;;;19.08;14.18;;;11.70;57.20;;;;;;4769080;29;20465;-78
2021/04/05 13:33:46;;;;;;;10.95;5.85;;;11.70;56.80;;;;;;4754730;30;20444;-77
2021/04/05 13:36:18;;;;;;;16.92;11.07;;;11.70;56.90;;;;;;4755631;30;20056;-78
2021/04/05 13:39:06;;;;;;;9.45;3.58;;;11.70;57.10;;;;;;4766784;29;20047;-77
2021/04/05 13:41:37;;;;;;;15.30;4.78;;;11.70;57.70;;;;;;4780209;29;20051;-78
2021/04/05 13:44:12;;;;;;;9.18;2.70;;;11.70;57.30;;;;;;4795086;29;20063;-78
2021/04/05 13:46:45;;;;;;;9.93;4.05;;;11.80;58.50;;;;;;4778328;29;20150;-77
2021/04/05 13:49:41;;;;;;;9.57;3.50;;;11.80;57.20;;;;;;4789704;29;20137;-78
2021/04/05 13:52:18;;;;;;;5.32;2.60;;;11.90;57.50;;;;;;4775900;29;20054;-77
2021/04/05 13:55:07;;;;;;;7.05;3.00;;;11.90;58.00;;;;;;4790170;29;20051;-78
2021/04/05 13:57:45;;;;;;;8.00;2.40;;;12.00;57.20;;;;;;4774756;29;20086;-77
2021/04/05 14:00:29;;;;;;;4.60;2.60;;;12.00;55.20;;;;;;4776175;29;20051;-78
2021/04/05 14:03:28;;;;;;;8.40;2.53;;;11.90;55.50;;;;;;4747789;30;20079;-80
2021/04/05 14:06:02;;;;;;;5.47;2.95;;;12.00;55.60;;;;;;4759219;30;20112;-78